sensor_id;sensor_type;location;lat;lon;timestamp;pressure;altitude;pressure_sealevel;temperature;humidity
48553;BME280;34335;51.566;6.994;2022-11-20T00:01:10;100781.03;;;-4.27;91.07
48553;BME280;34335;51.566;6.994;2022-11-20T00:03:35;100780.88;;;-4.30;92.23
48553;BME280;34335;51.566;6.994;2022-11-20T00:06:05;100776.16;;;-4.24;92.58
48553;BME280;34335;51.566;6.994;2022-11-20T00:08:31;100778.84;;;-4.36;91.16
48553;BME280;34335;51.566;6.994;2022-11-20T00:10:56;100780.09;;;-4.29;91.42
48553;BME280;34335;51.566;6.994;2022-11-20T00:13:22;100769.59;;;-3.92;95.25
48553;BME280;34335;51.566;6.994;2022-11-20T00:15:47;100775.03;;;-4.29;93.39
48553;BME280;34335;51.566;6.994;2022-11-20T00:18:13;100764.69;;;-4.46;92.37
48553;BME280;34335;51.566;6.994;2022-11-20T00:20:38;100770.81;;;-4.57;91.30
48553;BME280;34335;51.566;6.994;2022-11-20T00:23:04;100769.44;;;-4.65;90.84
48553;BME280;34335;51.566;6.994;2022-11-20T00:25:30;100771.13;;;-4.66;90.93
48553;BME280;34335;51.566;6.994;2022-11-20T00:27:56;100769.44;;;-4.65;91.32
48553;BME280;34335;51.566;6.994;2022-11-20T00:30:21;100771.59;;;-4.58;93.88
48553;BME280;34335;51.566;6.994;2022-11-20T00:32:46;100765.72;;;-4.57;93.32
48553;BME280;34335;51.566;6.994;2022-11-20T00:35:11;100768.44;;;-4.54;91.93
48553;BME280;34335;51.566;6.994;2022-11-20T00:37:37;100771.47;;;-4.60;91.80
48553;BME280;34335;51.566;6.994;2022-11-20T00:40:02;100766.91;;;-4.65;90.90
48553;BME280;34335;51.566;6.994;2022-11-20T00:42:28;100763.75;;;-4.48;93.12
48553;BME280;34335;51.566;6.994;2022-11-20T00:44:53;100768.00;;;-4.62;91.02
48553;BME280;34335;51.566;6.994;2022-11-20T00:47:18;100757.56;;;-4.66;91.07
48553;BME280;34335;51.566;6.994;2022-11-20T00:49:43;100759.50;;;-4.34;94.23
48553;BME280;34335;51.566;6.994;2022-11-20T00:52:09;100761.59;;;-4.55;92.81
48553;BME280;34335;51.566;6.994;2022-11-20T00:54:34;100760.59;;;-4.72;91.33
48553;BME280;34335;51.566;6.994;2022-11-20T00:57:00;100747.00;;;-4.73;91.59
48553;BME280;34335;51.566;6.994;2022-11-20T00:59:25;100757.84;;;-4.62;91.84
48553;BME280;34335;51.566;6.994;2022-11-20T01:01:50;100757.34;;;-4.13;95.54
48553;BME280;34335;51.566;6.994;2022-11-20T01:04:15;100752.72;;;-4.20;95.90
48553;BME280;34335;51.566;6.994;2022-11-20T01:06:41;100763.38;;;-4.54;92.37
48553;BME280;34335;51.566;6.994;2022-11-20T01:09:10;100759.69;;;-4.73;92.09
48553;BME280;34335;51.566;6.994;2022-11-20T01:11:38;100761.19;;;-4.76;92.28
48553;BME280;34335;51.566;6.994;2022-11-20T01:14:06;100756.78;;;-4.37;95.66
48553;BME280;34335;51.566;6.994;2022-11-20T01:16:43;100750.72;;;-4.67;92.86
48553;BME280;34335;51.566;6.994;2022-11-20T01:19:11;100754.16;;;-4.80;91.56
48553;BME280;34335;51.566;6.994;2022-11-20T01:21:39;100747.34;;;-4.81;92.58
48553;BME280;34335;51.566;6.994;2022-11-20T01:24:06;100745.75;;;-4.79;93.29
48553;BME280;34335;51.566;6.994;2022-11-20T01:26:34;100743.63;;;-4.87;92.17
48553;BME280;34335;51.566;6.994;2022-11-20T01:29:02;100735.59;;;-4.79;95.50
48553;BME280;34335;51.566;6.994;2022-11-20T01:31:36;100742.38;;;-4.93;93.66
48553;BME280;34335;51.566;6.994;2022-11-20T01:34:07;100735.34;;;-4.97;92.65
48553;BME280;34335;51.566;6.994;2022-11-20T01:36:35;100726.97;;;-4.96;92.89
48553;BME280;34335;51.566;6.994;2022-11-20T01:39:04;100721.63;;;-5.01;92.75
48553;BME280;34335;51.566;6.994;2022-11-20T01:41:33;100715.94;;;-4.97;92.97
48553;BME280;34335;51.566;6.994;2022-11-20T01:44:20;100718.81;;;-4.77;98.83
48553;BME280;34335;51.566;6.994;2022-11-20T01:46:56;100731.72;;;-4.88;96.28
48553;BME280;34335;51.566;6.994;2022-11-20T01:49:53;100736.44;;;-4.94;94.70
48553;BME280;34335;51.566;6.994;2022-11-20T01:52:24;100738.47;;;-5.02;94.04
48553;BME280;34335;51.566;6.994;2022-11-20T01:55:12;100745.22;;;-5.02;92.92
48553;BME280;34335;51.566;6.994;2022-11-20T01:57:38;100741.94;;;-4.73;96.89
48553;BME280;34335;51.566;6.994;2022-11-20T02:00:09;100737.56;;;-4.75;97.51
48553;BME280;34335;51.566;6.994;2022-11-20T02:02:36;100740.16;;;-5.02;94.86
48553;BME280;34335;51.566;6.994;2022-11-20T02:05:12;100728.53;;;-5.12;93.37
48553;BME280;34335;51.566;6.994;2022-11-20T02:07:40;100735.16;;;-5.14;93.80
48553;BME280;34335;51.566;6.994;2022-11-20T02:10:06;100724.84;;;-5.17;93.16
48553;BME280;34335;51.566;6.994;2022-11-20T02:12:32;100717.25;;;-5.17;92.56
48553;BME280;34335;51.566;6.994;2022-11-20T02:15:16;100714.28;;;-4.96;96.46
48553;BME280;34335;51.566;6.994;2022-11-20T02:17:41;100709.81;;;-5.14;94.71
48553;BME280;34335;51.566;6.994;2022-11-20T02:20:07;100708.66;;;-5.19;93.51
48553;BME280;34335;51.566;6.994;2022-11-20T02:22:38;100712.47;;;-4.84;96.98
48553;BME280;34335;51.566;6.994;2022-11-20T02:25:10;100718.22;;;-5.15;95.56
48553;BME280;34335;51.566;6.994;2022-11-20T02:27:36;100711.47;;;-5.28;94.12
48553;BME280;34335;51.566;6.994;2022-11-20T02:30:04;100708.06;;;-5.28;93.61
48553;BME280;34335;51.566;6.994;2022-11-20T02:32:35;100711.59;;;-5.26;93.79
48553;BME280;34335;51.566;6.994;2022-11-20T02:37:54;100706.13;;;-5.06;94.72
48553;BME280;34335;51.566;6.994;2022-11-20T02:40:20;100699.78;;;-5.26;93.50
48553;BME280;34335;51.566;6.994;2022-11-20T02:42:45;100696.25;;;-5.28;93.48
48553;BME280;34335;51.566;6.994;2022-11-20T02:45:11;100693.53;;;-4.76;97.74
48553;BME280;34335;51.566;6.994;2022-11-20T02:47:36;100688.13;;;-4.67;97.69
48553;BME280;34335;51.566;6.994;2022-11-20T02:50:03;100698.88;;;-4.99;96.73
48553;BME280;34335;51.566;6.994;2022-11-20T02:52:29;100702.94;;;-4.88;98.50
48553;BME280;34335;51.566;6.994;2022-11-20T02:54:55;100696.63;;;-5.08;98.56
48553;BME280;34335;51.566;6.994;2022-11-20T02:57:20;100697.19;;;-4.86;98.51
48553;BME280;34335;51.566;6.994;2022-11-20T02:59:45;100697.47;;;-4.81;100.00
48553;BME280;34335;51.566;6.994;2022-11-20T03:02:11;100699.09;;;-5.23;96.50
48553;BME280;34335;51.566;6.994;2022-11-20T03:04:36;100694.00;;;-5.23;96.15
48553;BME280;34335;51.566;6.994;2022-11-20T03:07:01;100688.66;;;-5.14;95.91
48553;BME280;34335;51.566;6.994;2022-11-20T03:09:27;100695.50;;;-4.85;99.17
48553;BME280;34335;51.566;6.994;2022-11-20T03:11:52;100685.63;;;-5.22;96.78
48553;BME280;34335;51.566;6.994;2022-11-20T03:14:17;100683.91;;;-5.37;94.91
48553;BME280;34335;51.566;6.994;2022-11-20T03:16:43;100687.72;;;-5.30;94.77
48553;BME280;34335;51.566;6.994;2022-11-20T03:19:08;100678.41;;;-4.74;97.49
48553;BME280;34335;51.566;6.994;2022-11-20T03:21:34;100686.06;;;-4.59;99.76
48553;BME280;34335;51.566;6.994;2022-11-20T03:24:00;100681.72;;;-4.32;100.00
48553;BME280;34335;51.566;6.994;2022-11-20T03:26:26;100681.53;;;-4.50;99.29
48553;BME280;34335;51.566;6.994;2022-11-20T03:28:54;100685.22;;;-4.45;100.00
48553;BME280;34335;51.566;6.994;2022-11-20T03:31:23;100680.13;;;-4.45;100.00
48553;BME280;34335;51.566;6.994;2022-11-20T03:33:49;100675.25;;;-4.42;100.00
48553;BME280;34335;51.566;6.994;2022-11-20T03:36:16;100673.34;;;-4.16;100.00
48553;BME280;34335;51.566;6.994;2022-11-20T03:38:42;100678.69;;;-4.70;99.85
48553;BME280;34335;51.566;6.994;2022-11-20T03:41:10;100676.78;;;-4.00;100.00
48553;BME280;34335;51.566;6.994;2022-11-20T03:43:36;100667.38;;;-4.46;100.00
48553;BME280;34335;51.566;6.994;2022-11-20T03:46:01;100675.00;;;-4.31;100.00
48553;BME280;34335;51.566;6.994;2022-11-20T03:48:27;100669.31;;;-4.27;100.00
48553;BME280;34335;51.566;6.994;2022-11-20T03:51:05;100666.81;;;-4.56;100.00
48553;BME280;34335;51.566;6.994;2022-11-20T03:53:31;100663.13;;;-4.89;100.00
48553;BME280;34335;51.566;6.994;2022-11-20T03:55:56;100646.38;;;-4.29;100.00
48553;BME280;34335;51.566;6.994;2022-11-20T03:58:21;100652.50;;;-4.25;100.00
48553;BME280;34335;51.566;6.994;2022-11-20T04:00:46;100651.66;;;-4.11;100.00
48553;BME280;34335;51.566;6.994;2022-11-20T04:03:12;100641.47;;;-4.41;100.00
48553;BME280;34335;51.566;6.994;2022-11-20T04:05:37;100642.00;;;-4.31;100.00
48553;BME280;34335;51.566;6.994;2022-11-20T04:08:02;100652.25;;;-4.00;100.00
48553;BME280;34335;51.566;6.994;2022-11-20T04:10:27;100646.00;;;-4.50;100.00
48553;BME280;34335;51.566;6.994;2022-11-20T04:12:53;100645.78;;;-4.10;100.00
48553;BME280;34335;51.566;6.994;2022-11-20T04:15:18;100650.88;;;-4.10;100.00
48553;BME280;34335;51.566;6.994;2022-11-20T04:17:43;100648.28;;;-4.40;100.00
48553;BME280;34335;51.566;6.994;2022-11-20T04:20:09;100651.97;;;-4.19;100.00
48553;BME280;34335;51.566;6.994;2022-11-20T04:22:34;100643.22;;;-4.40;100.00
48553;BME280;34335;51.566;6.994;2022-11-20T04:25:00;100647.59;;;-4.22;100.00
48553;BME280;34335;51.566;6.994;2022-11-20T04:27:25;100645.41;;;-4.16;100.00
48553;BME280;34335;51.566;6.994;2022-11-20T04:29:50;100647.34;;;-4.12;100.00
48553;BME280;34335;51.566;6.994;2022-11-20T04:32:15;100656.22;;;-4.05;100.00
48553;BME280;34335;51.566;6.994;2022-11-20T04:34:41;100656.88;;;-4.08;100.00
48553;BME280;34335;51.566;6.994;2022-11-20T04:37:06;100652.00;;;-4.04;100.00
48553;BME280;34335;51.566;6.994;2022-11-20T04:39:31;100647.63;;;-4.07;100.00
48553;BME280;34335;51.566;6.994;2022-11-20T04:41:56;100656.09;;;-4.07;100.00
48553;BME280;34335;51.566;6.994;2022-11-20T04:44:40;100651.38;;;-4.00;100.00
48553;BME280;34335;51.566;6.994;2022-11-20T04:47:05;100651.47;;;-4.14;100.00
48553;BME280;34335;51.566;6.994;2022-11-20T04:49:31;100640.97;;;-4.20;100.00
48553;BME280;34335;51.566;6.994;2022-11-20T04:51:57;100648.41;;;-3.93;100.00
48553;BME280;34335;51.566;6.994;2022-11-20T04:54:22;100642.44;;;-4.24;100.00
48553;BME280;34335;51.566;6.994;2022-11-20T04:56:48;100641.47;;;-4.41;100.00
48553;BME280;34335;51.566;6.994;2022-11-20T04:59:13;100644.09;;;-3.94;100.00
48553;BME280;34335;51.566;6.994;2022-11-20T05:01:39;100649.50;;;-3.88;100.00
48553;BME280;34335;51.566;6.994;2022-11-20T05:04:04;100646.97;;;-4.03;100.00
48553;BME280;34335;51.566;6.994;2022-11-20T05:06:31;100639.72;;;-4.12;100.00
48553;BME280;34335;51.566;6.994;2022-11-20T05:08:56;100648.25;;;-3.65;100.00
48553;BME280;34335;51.566;6.994;2022-11-20T05:11:22;100645.22;;;-3.89;100.00
48553;BME280;34335;51.566;6.994;2022-11-20T05:13:48;100651.81;;;-3.93;100.00
48553;BME280;34335;51.566;6.994;2022-11-20T05:16:23;100657.78;;;-3.92;100.00
48553;BME280;34335;51.566;6.994;2022-11-20T05:18:50;100648.59;;;-3.90;100.00
48553;BME280;34335;51.566;6.994;2022-11-20T05:21:16;100655.22;;;-4.07;100.00
48553;BME280;34335;51.566;6.994;2022-11-20T05:23:43;100650.22;;;-4.05;100.00
48553;BME280;34335;51.566;6.994;2022-11-20T05:26:14;100644.53;;;-4.16;99.57
48553;BME280;34335;51.566;6.994;2022-11-20T05:28:39;100640.97;;;-3.90;100.00
48553;BME280;34335;51.566;6.994;2022-11-20T05:31:07;100651.66;;;-3.96;100.00
48553;BME280;34335;51.566;6.994;2022-11-20T05:33:34;100649.25;;;-3.93;100.00
48553;BME280;34335;51.566;6.994;2022-11-20T05:35:59;100647.59;;;-4.22;100.00
48553;BME280;34335;51.566;6.994;2022-11-20T05:38:24;100645.25;;;-4.04;100.00
48553;BME280;34335;51.566;6.994;2022-11-20T05:40:50;100642.53;;;-3.92;100.00
48553;BME280;34335;51.566;6.994;2022-11-20T05:43:15;100645.16;;;-3.91;100.00
48553;BME280;34335;51.566;6.994;2022-11-20T05:45:40;100640.97;;;-4.20;100.00
48553;BME280;34335;51.566;6.994;2022-11-20T05:48:05;100648.59;;;-4.05;100.00
48553;BME280;34335;51.566;6.994;2022-11-20T05:50:31;100645.16;;;-4.05;100.00
48553;BME280;34335;51.566;6.994;2022-11-20T05:53:00;100643.31;;;-3.78;100.00
48553;BME280;34335;51.566;6.994;2022-11-20T05:55:26;100654.25;;;-3.94;100.00
48553;BME280;34335;51.566;6.994;2022-11-20T05:57:54;100652.56;;;-3.79;100.00
48553;BME280;34335;51.566;6.994;2022-11-20T06:00:20;100647.88;;;-4.02;100.00
48553;BME280;34335;51.566;6.994;2022-11-20T06:02:46;100647.44;;;-3.95;100.00
48553;BME280;34335;51.566;6.994;2022-11-20T06:05:11;100647.81;;;-4.04;100.00
48553;BME280;34335;51.566;6.994;2022-11-20T06:07:36;100648.06;;;-3.99;100.00
48553;BME280;34335;51.566;6.994;2022-11-20T06:10:02;100640.06;;;-4.05;100.00
48553;BME280;34335;51.566;6.994;2022-11-20T06:12:27;100644.63;;;-4.15;99.21
48553;BME280;34335;51.566;6.994;2022-11-20T06:14:52;100640.31;;;-3.86;100.00
48553;BME280;34335;51.566;6.994;2022-11-20T06:17:18;100642.41;;;-3.79;100.00
48553;BME280;34335;51.566;6.994;2022-11-20T06:19:43;100637.78;;;-3.86;100.00
48553;BME280;34335;51.566;6.994;2022-11-20T06:22:08;100634.97;;;-3.44;100.00
48553;BME280;34335;51.566;6.994;2022-11-20T06:24:33;100642.34;;;-3.80;99.69
48553;BME280;34335;51.566;6.994;2022-11-20T06:26:59;100636.91;;;-3.86;99.55
48553;BME280;34335;51.566;6.994;2022-11-20T06:29:24;100651.66;;;-3.96;98.03
48553;BME280;34335;51.566;6.994;2022-11-20T06:31:49;100648.47;;;-3.77;100.00
48553;BME280;34335;51.566;6.994;2022-11-20T06:34:15;100649.50;;;-3.88;100.00
48553;BME280;34335;51.566;6.994;2022-11-20T06:36:40;100647.66;;;-3.61;100.00
48553;BME280;34335;51.566;6.994;2022-11-20T06:39:05;100652.69;;;-3.92;100.00
48553;BME280;34335;51.566;6.994;2022-11-20T06:41:31;100653.53;;;-3.62;100.00
48553;BME280;34335;51.566;6.994;2022-11-20T06:43:56;100658.81;;;-3.88;99.85
48553;BME280;34335;51.566;6.994;2022-11-20T06:46:21;100660.41;;;-4.05;99.14
48553;BME280;34335;51.566;6.994;2022-11-20T06:48:48;100656.03;;;-4.08;97.97
48553;BME280;34335;51.566;6.994;2022-11-20T06:51:14;100655.50;;;-4.02;98.59
48553;BME280;34335;51.566;6.994;2022-11-20T06:53:39;100660.84;;;-3.83;99.84
48553;BME280;34335;51.566;6.994;2022-11-20T06:56:06;100653.75;;;-3.88;99.20
48553;BME280;34335;51.566;6.994;2022-11-20T06:58:33;100657.06;;;-4.04;98.78
48553;BME280;34335;51.566;6.994;2022-11-20T07:01:00;100659.00;;;-4.00;98.37
48553;BME280;34335;51.566;6.994;2022-11-20T07:03:26;100651.28;;;-3.87;98.83
48553;BME280;34335;51.566;6.994;2022-11-20T07:05:54;100658.13;;;-3.86;98.76
48553;BME280;34335;51.566;6.994;2022-11-20T07:08:20;100660.19;;;-3.79;100.00
48553;BME280;34335;51.566;6.994;2022-11-20T07:10:45;100659.53;;;-3.91;99.19
48553;BME280;34335;51.566;6.994;2022-11-20T07:13:10;100663.00;;;-3.89;99.06
48553;BME280;34335;51.566;6.994;2022-11-20T07:15:36;100663.56;;;-4.10;100.00
48553;BME280;34335;51.566;6.994;2022-11-20T07:18:01;100668.97;;;-4.18;100.00
48553;BME280;34335;51.566;6.994;2022-11-20T07:20:27;100686.22;;;-4.28;100.00
48553;BME280;34335;51.566;6.994;2022-11-20T07:22:54;100680.09;;;-4.31;100.00
48553;BME280;34335;51.566;6.994;2022-11-20T07:25:20;100672.78;;;-4.40;100.00
48553;BME280;34335;51.566;6.994;2022-11-20T07:27:45;100673.69;;;-4.40;100.00
48553;BME280;34335;51.566;6.994;2022-11-20T07:30:11;100679.72;;;-4.52;100.00
48553;BME280;34335;51.566;6.994;2022-11-20T07:32:36;100671.91;;;-4.56;100.00
48553;BME280;34335;51.566;6.994;2022-11-20T07:35:01;100664.09;;;-4.59;100.00
48553;BME280;34335;51.566;6.994;2022-11-20T07:37:27;100669.97;;;-4.45;100.00
48553;BME280;34335;51.566;6.994;2022-11-20T07:39:52;100669.81;;;-4.48;100.00
48553;BME280;34335;51.566;6.994;2022-11-20T07:42:17;100662.59;;;-4.55;100.00
48553;BME280;34335;51.566;6.994;2022-11-20T07:44:42;100675.84;;;-4.46;100.00
48553;BME280;34335;51.566;6.994;2022-11-20T07:47:08;100676.56;;;-4.33;100.00
48553;BME280;34335;51.566;6.994;2022-11-20T07:49:33;100666.69;;;-4.29;100.00
48553;BME280;34335;51.566;6.994;2022-11-20T07:51:58;100668.25;;;-4.31;100.00
48553;BME280;34335;51.566;6.994;2022-11-20T07:54:24;100666.19;;;-4.51;100.00
48553;BME280;34335;51.566;6.994;2022-11-20T07:56:49;100670.84;;;-4.59;100.00
48553;BME280;34335;51.566;6.994;2022-11-20T07:59:15;100665.56;;;-4.62;100.00
48553;BME280;34335;51.566;6.994;2022-11-20T08:01:41;100666.13;;;-4.53;100.00
48553;BME280;34335;51.566;6.994;2022-11-20T08:04:07;100663.38;;;-4.56;100.00
48553;BME280;34335;51.566;6.994;2022-11-20T08:06:32;100663.31;;;-4.58;100.00
48553;BME280;34335;51.566;6.994;2022-11-20T08:08:58;100656.59;;;-4.57;99.79
48553;BME280;34335;51.566;6.994;2022-11-20T08:11:23;100650.03;;;-4.54;99.90
48553;BME280;34335;51.566;6.994;2022-11-20T08:14:07;100657.22;;;-4.46;99.50
48553;BME280;34335;51.566;6.994;2022-11-20T08:16:43;100651.25;;;-4.47;99.57
48553;BME280;34335;51.566;6.994;2022-11-20T08:19:09;100647.25;;;-4.28;100.00
48553;BME280;34335;51.566;6.994;2022-11-20T08:21:35;100649.44;;;-4.19;100.00
48553;BME280;34335;51.566;6.994;2022-11-20T08:24:00;100645.59;;;-3.83;100.00
48553;BME280;34335;51.566;6.994;2022-11-20T08:26:26;100644.53;;;-3.40;100.00
48553;BME280;34335;51.566;6.994;2022-11-20T08:28:58;100646.13;;;-3.42;100.00
48553;BME280;34335;51.566;6.994;2022-11-20T08:31:25;100644.53;;;-3.71;100.00
48553;BME280;34335;51.566;6.994;2022-11-20T08:33:50;100655.50;;;-4.02;100.00
48553;BME280;34335;51.566;6.994;2022-11-20T08:36:16;100660.41;;;-4.05;99.17
48553;BME280;34335;51.566;6.994;2022-11-20T08:38:42;100656.81;;;-4.09;99.66
48553;BME280;34335;51.566;6.994;2022-11-20T08:41:11;100663.97;;;-3.87;100.00
48553;BME280;34335;51.566;6.994;2022-11-20T08:43:56;100660.56;;;-3.87;100.00
48553;BME280;34335;51.566;6.994;2022-11-20T08:46:26;100656.97;;;-3.61;100.00
48553;BME280;34335;51.566;6.994;2022-11-20T08:48:52;100646.28;;;-3.39;100.00
48553;BME280;34335;51.566;6.994;2022-11-20T08:51:19;100643.59;;;-3.25;100.00
48553;BME280;34335;51.566;6.994;2022-11-20T08:53:44;100645.72;;;-3.02;100.00
48553;BME280;34335;51.566;6.994;2022-11-20T08:56:10;100645.91;;;-2.82;100.00
48553;BME280;34335;51.566;6.994;2022-11-20T08:58:37;100652.25;;;-2.41;100.00
48553;BME280;34335;51.566;6.994;2022-11-20T09:01:02;100657.50;;;-2.54;100.00
48553;BME280;34335;51.566;6.994;2022-11-20T09:03:27;100655.44;;;-2.45;100.00
48553;BME280;34335;51.566;6.994;2022-11-20T09:05:57;100653.28;;;-2.37;100.00
48553;BME280;34335;51.566;6.994;2022-11-20T09:08:23;100664.91;;;-2.59;100.00
48553;BME280;34335;51.566;6.994;2022-11-20T09:10:51;100646.41;;;-2.22;100.00
48553;BME280;34335;51.566;6.994;2022-11-20T09:13:17;100648.19;;;-1.84;100.00
48553;BME280;34335;51.566;6.994;2022-11-20T09:15:42;100639.13;;;-2.14;100.00
48553;BME280;34335;51.566;6.994;2022-11-20T09:18:07;100645.28;;;-1.74;100.00
48553;BME280;34335;51.566;6.994;2022-11-20T09:20:32;100642.88;;;-2.07;100.00
48553;BME280;34335;51.566;6.994;2022-11-20T09:22:58;100642.22;;;-1.67;100.00
48553;BME280;34335;51.566;6.994;2022-11-20T09:25:23;100632.34;;;-1.61;100.00
48553;BME280;34335;51.566;6.994;2022-11-20T09:27:57;100636.91;;;-1.35;100.00
48553;BME280;34335;51.566;6.994;2022-11-20T09:30:22;100629.38;;;-1.32;100.00
48553;BME280;34335;51.566;6.994;2022-11-20T09:32:47;100627.19;;;-1.24;100.00
48553;BME280;34335;51.566;6.994;2022-11-20T09:35:13;100613.41;;;-1.28;100.00
48553;BME280;34335;51.566;6.994;2022-11-20T09:37:39;100624.59;;;-1.06;100.00
48553;BME280;34335;51.566;6.994;2022-11-20T09:40:05;100626.28;;;-1.25;100.00
48553;BME280;34335;51.566;6.994;2022-11-20T09:42:41;100622.53;;;-0.96;100.00
48553;BME280;34335;51.566;6.994;2022-11-20T09:48:33;100613.84;;;-0.60;100.00
48553;BME280;34335;51.566;6.994;2022-11-20T09:51:32;100602.53;;;-0.45;100.00
48553;BME280;34335;51.566;6.994;2022-11-20T09:54:13;100605.78;;;-0.50;100.00
48553;BME280;34335;51.566;6.994;2022-11-20T09:56:44;100607.53;;;-0.49;100.00
48553;BME280;34335;51.566;6.994;2022-11-20T09:59:25;100602.63;;;-0.23;100.00
48553;BME280;34335;51.566;6.994;2022-11-20T10:01:52;100598.31;;;-0.24;100.00
48553;BME280;34335;51.566;6.994;2022-11-20T10:04:20;100595.19;;;0.05;100.00
48553;BME280;34335;51.566;6.994;2022-11-20T10:07:07;100595.56;;;0.37;100.00
48553;BME280;34335;51.566;6.994;2022-11-20T10:09:39;100596.38;;;0.36;100.00
48553;BME280;34335;51.566;6.994;2022-11-20T10:14:56;100581.84;;;0.57;100.00
48553;BME280;34335;51.566;6.994;2022-11-20T10:17:46;100586.63;;;0.71;100.00
48553;BME280;34335;51.566;6.994;2022-11-20T10:20:20;100590.53;;;0.84;100.00
48553;BME280;34335;51.566;6.994;2022-11-20T10:23:06;100582.66;;;0.79;100.00
48553;BME280;34335;51.566;6.994;2022-11-20T10:28:27;100584.59;;;1.59;100.00
48553;BME280;34335;51.566;6.994;2022-11-20T10:31:02;100579.31;;;1.80;100.00
48553;BME280;34335;51.566;6.994;2022-11-20T10:33:33;100578.16;;;1.98;99.42
48553;BME280;34335;51.566;6.994;2022-11-20T10:36:34;100569.56;;;1.96;98.61
48553;BME280;34335;51.566;6.994;2022-11-20T10:39:35;100571.06;;;1.89;99.26
48553;BME280;34335;51.566;6.994;2022-11-20T10:42:08;100558.34;;;1.92;100.00
48553;BME280;34335;51.566;6.994;2022-11-20T10:44:36;100558.63;;;1.76;98.76
48553;BME280;34335;51.566;6.994;2022-11-20T10:47:22;100554.16;;;1.96;99.09
48553;BME280;34335;51.566;6.994;2022-11-20T10:49:53;100558.78;;;2.06;96.57
48553;BME280;34335;51.566;6.994;2022-11-20T10:55:19;100548.16;;;2.23;98.11
48553;BME280;34335;51.566;6.994;2022-11-20T10:58:01;100544.38;;;2.40;98.41
48553;BME280;34335;51.566;6.994;2022-11-20T11:00:31;100547.13;;;2.17;96.45
48553;BME280;34335;51.566;6.994;2022-11-20T11:02:56;100549.63;;;2.43;98.22
48553;BME280;34335;51.566;6.994;2022-11-20T11:08:17;100541.13;;;2.46;96.80
48553;BME280;34335;51.566;6.994;2022-11-20T11:13:22;100530.06;;;2.48;96.19
48553;BME280;34335;51.566;6.994;2022-11-20T11:15:48;100520.00;;;2.85;97.75
48553;BME280;34335;51.566;6.994;2022-11-20T11:18:30;100521.91;;;2.62;96.21
48553;BME280;34335;51.566;6.994;2022-11-20T11:20:56;100520.69;;;2.49;97.13
48553;BME280;34335;51.566;6.994;2022-11-20T11:23:32;100512.75;;;2.41;97.55
48553;BME280;34335;51.566;6.994;2022-11-20T11:26:00;100509.06;;;2.62;98.15
48553;BME280;34335;51.566;6.994;2022-11-20T11:28:27;100511.00;;;2.71;98.10
48553;BME280;34335;51.566;6.994;2022-11-20T11:30:54;100500.56;;;2.63;97.52
48553;BME280;34335;51.566;6.994;2022-11-20T11:33:22;100501.22;;;2.88;98.67
48553;BME280;34335;51.566;6.994;2022-11-20T11:35:50;100491.81;;;2.88;97.78
48553;BME280;34335;51.566;6.994;2022-11-20T11:38:21;100492.78;;;2.92;97.05
48553;BME280;34335;51.566;6.994;2022-11-20T11:40:47;100492.06;;;2.98;97.70
48553;BME280;34335;51.566;6.994;2022-11-20T11:43:22;100488.03;;;3.07;96.91
48553;BME280;34335;51.566;6.994;2022-11-20T11:48:56;100474.00;;;3.28;96.33
48553;BME280;34335;51.566;6.994;2022-11-20T11:51:22;100477.97;;;3.15;95.98
48553;BME280;34335;51.566;6.994;2022-11-20T11:53:49;100471.88;;;3.11;96.78
48553;BME280;34335;51.566;6.994;2022-11-20T11:56:15;100469.56;;;3.22;97.26
48553;BME280;34335;51.566;6.994;2022-11-20T11:58:46;100465.81;;;3.09;94.78
48553;BME280;34335;51.566;6.994;2022-11-20T12:03:58;100445.03;;;3.35;96.38
48553;BME280;34335;51.566;6.994;2022-11-20T12:06:27;100446.53;;;3.25;95.33
48553;BME280;34335;51.566;6.994;2022-11-20T12:09:00;100444.81;;;3.26;96.28
48553;BME280;34335;51.566;6.994;2022-11-20T12:12:08;100428.97;;;3.44;96.30
48553;BME280;34335;51.566;6.994;2022-11-20T12:14:40;100430.59;;;3.40;94.74
48553;BME280;34335;51.566;6.994;2022-11-20T12:17:12;100426.97;;;3.32;95.72
48553;BME280;34335;51.566;6.994;2022-11-20T12:19:37;100432.56;;;3.16;96.18
48553;BME280;34335;51.566;6.994;2022-11-20T12:22:17;100434.66;;;3.32;96.01
48553;BME280;34335;51.566;6.994;2022-11-20T12:25:14;100426.59;;;3.17;96.13
48553;BME280;34335;51.566;6.994;2022-11-20T12:30:28;100418.06;;;3.18;96.78
48553;BME280;34335;51.566;6.994;2022-11-20T12:36:06;100413.22;;;3.30;96.77
48553;BME280;34335;51.566;6.994;2022-11-20T12:38:51;100413.53;;;3.44;96.81
48553;BME280;34335;51.566;6.994;2022-11-20T12:50:30;100397.03;;;3.34;96.24
48553;BME280;34335;51.566;6.994;2022-11-20T12:53:03;100392.97;;;3.44;95.68
48553;BME280;34335;51.566;6.994;2022-11-20T13:00:56;100379.09;;;3.36;96.01
48553;BME280;34335;51.566;6.994;2022-11-20T13:03:42;100365.44;;;3.40;95.61
48553;BME280;34335;51.566;6.994;2022-11-20T13:06:17;100368.19;;;3.48;95.29
48553;BME280;34335;51.566;6.994;2022-11-20T13:08:54;100368.13;;;3.45;95.36
48553;BME280;34335;51.566;6.994;2022-11-20T13:11:40;100358.69;;;3.43;95.74
48553;BME280;34335;51.566;6.994;2022-11-20T13:16:55;100339.19;;;3.53;95.08
48553;BME280;34335;51.566;6.994;2022-11-20T13:19:23;100333.22;;;3.54;95.33
48553;BME280;34335;51.566;6.994;2022-11-20T13:21:49;100331.31;;;3.46;95.05
48553;BME280;34335;51.566;6.994;2022-11-20T13:29:26;100321.78;;;3.41;94.77
48553;BME280;34335;51.566;6.994;2022-11-20T13:32:04;100324.56;;;3.51;95.12
48553;BME280;34335;51.566;6.994;2022-11-20T13:34:31;100328.03;;;3.53;95.11
48553;BME280;34335;51.566;6.994;2022-11-20T13:36:58;100335.41;;;3.37;94.77
48553;BME280;34335;51.566;6.994;2022-11-20T13:39:36;100325.72;;;3.65;94.65
48553;BME280;34335;51.566;6.994;2022-11-20T13:44:44;100317.53;;;3.43;94.76
48553;BME280;34335;51.566;6.994;2022-11-20T13:47:27;100307.44;;;3.51;94.75
48553;BME280;34335;51.566;6.994;2022-11-20T13:49:53;100300.72;;;3.58;94.74
48553;BME280;34335;51.566;6.994;2022-11-20T13:52:48;100288.78;;;3.62;94.26